Time;durP1;ratioP1;P1;durP2;ratioP2;P2;SDS_P1;SDS_P2;PMS_P1;PMS_P2;Temp;Humidity;BMP_temperature;BMP_pressure;BME280_temperature;BME280_humidity;BME280_pressure;Samples;Min_cycle;Max_cycle;Signal;HPM_P1;HPM_P2
2022/10/04 00:00:27;;;;;;;12.13;7.22;;;11.90;99.90;;;;;;6272758;22;20011;-85
2022/10/04 00:03:00;;;;;;;12.90;6.53;;;11.90;99.90;;;;;;6271121;22;20026;-85
2022/10/04 00:05:28;;;;;;;12.25;6.28;;;12.10;99.90;;;;;;6270139;22;20126;-84
2022/10/04 00:07:58;;;;;;;12.20;6.10;;;11.90;99.90;;;;;;6271038;22;20153;-85
2022/10/04 00:10:32;;;;;;;12.40;6.40;;;11.90;99.90;;;;;;6272088;22;20066;-85
2022/10/04 00:13:04;;;;;;;12.98;6.43;;;11.90;99.90;;;;;;6244753;22;20047;-85
2022/10/04 00:15:33;;;;;;;16.17;6.80;;;11.90;99.90;;;;;;6271916;22;20018;-85
2022/10/04 00:18:22;;;;;;;15.50;5.63;;;11.90;99.90;;;;;;6244617;22;20429;-85
2022/10/04 00:20:49;;;;;;;13.95;6.07;;;11.90;99.90;;;;;;6250826;22;20181;-85
2022/10/04 00:23:27;;;;;;;14.38;6.40;;;11.90;99.90;;;;;;6271705;22;20022;-85
2022/10/04 00:26:04;;;;;;;15.43;6.65;;;11.90;99.90;;;;;;6270141;22;20015;-85
2022/10/04 00:28:35;;;;;;;16.63;6.82;;;11.90;99.90;;;;;;6272140;22;20016;-85
2022/10/04 00:31:21;;;;;;;15.63;7.63;;;12.00;99.90;;;;;;6270233;22;20024;-85
2022/10/04 00:33:56;;;;;;;13.10;6.78;;;11.80;99.90;;;;;;6218713;22;20012;-85
2022/10/04 00:36:24;;;;;;;13.55;6.32;;;11.80;99.90;;;;;;6271723;22;20047;-85
2022/10/04 00:39:09;;;;;;;13.32;5.95;;;11.80;99.90;;;;;;6269598;22;20024;-85
2022/10/04 00:41:37;;;;;;;11.88;6.93;;;11.80;99.90;;;;;;6271519;22;20016;-85
2022/10/04 00:44:09;;;;;;;13.15;7.15;;;11.80;99.90;;;;;;6269125;22;20016;-84
2022/10/04 00:46:38;;;;;;;17.10;7.03;;;11.80;99.90;;;;;;6269998;22;20007;-85
2022/10/04 00:49:07;;;;;;;17.95;7.22;;;11.80;99.90;;;;;;6269989;22;20046;-85
2022/10/04 00:51:57;;;;;;;19.05;7.80;;;11.80;99.90;;;;;;6269334;22;20066;-84
2022/10/04 00:54:32;;;;;;;16.73;7.63;;;11.80;99.90;;;;;;6270005;22;20031;-85
2022/10/04 00:57:09;;;;;;;15.25;7.72;;;11.70;99.90;;;;;;6269602;22;20015;-85
2022/10/04 01:00:06;;;;;;;18.10;7.93;;;11.70;99.90;;;;;;6269923;22;20487;-85
2022/10/04 01:02:37;;;;;;;15.57;7.15;;;11.90;99.90;;;;;;6263811;22;20016;-85
2022/10/04 01:05:03;;;;;;;16.17;7.55;;;11.70;99.90;;;;;;6269820;22;20018;-85
2022/10/04 01:07:41;;;;;;;14.18;7.72;;;11.70;99.90;;;;;;6270243;22;20082;-85
2022/10/04 01:10:13;;;;;;;16.52;8.13;;;11.70;99.90;;;;;;6270176;22;20016;-85
2022/10/04 01:12:53;;;;;;;17.52;7.82;;;11.70;99.90;;;;;;6269355;22;20012;-85
2022/10/04 01:15:49;;;;;;;14.38;7.93;;;11.60;99.90;;;;;;6270151;22;20328;-84
2022/10/04 01:18:35;;;;;;;19.20;7.15;;;11.60;99.90;;;;;;6098419;23;20017;-85
2022/10/04 01:21:06;;;;;;;19.80;8.63;;;11.50;99.90;;;;;;6121856;23;20417;-85
2022/10/04 01:23:45;;;;;;;19.60;8.57;;;11.50;99.90;;;;;;6147452;23;20029;-85
2022/10/04 01:26:29;;;;;;;20.63;8.85;;;11.50;99.90;;;;;;6122036;23;20033;-85
2022/10/04 01:28:57;;;;;;;18.42;9.60;;;11.50;99.90;;;;;;6122714;23;20088;-84
2022/10/04 01:31:31;;;;;;;19.25;9.85;;;11.50;99.90;;;;;;6123154;23;20021;-85
2022/10/04 01:33:58;;;;;;;15.85;7.88;;;11.50;99.90;;;;;;6122508;23;20080;-85
2022/10/04 01:36:25;;;;;;;16.80;9.05;;;11.50;99.90;;;;;;6097499;23;20017;-85
2022/10/04 01:38:51;;;;;;;19.83;9.00;;;11.70;99.90;;;;;;6122614;23;20028;-85
2022/10/04 01:41:24;;;;;;;16.77;9.77;;;11.50;99.90;;;;;;6147372;23;20017;-85
2022/10/04 01:43:55;;;;;;;18.95;9.23;;;11.50;99.90;;;;;;6122768;23;20092;-85
2022/10/04 01:46:27;;;;;;;16.33;9.05;;;11.50;99.90;;;;;;6122852;23;20025;-85
2022/10/04 01:48:55;;;;;;;18.65;9.55;;;11.50;99.90;;;;;;6147298;23;20057;-85
2022/10/04 01:51:29;;;;;;;20.58;9.45;;;11.50;99.90;;;;;;6096606;23;20435;-85
2022/10/04 01:54:14;;;;;;;22.75;9.90;;;11.50;99.90;;;;;;6122770;23;20648;-85
2022/10/04 01:56:50;;;;;;;17.58;8.88;;;11.50;99.90;;;;;;6269217;22;20096;-84
2022/10/04 01:59:26;;;;;;;18.77;9.48;;;11.50;99.90;;;;;;6269358;22;20012;-85
2022/10/04 02:02:00;;;;;;;16.25;8.90;;;11.50;99.90;;;;;;6269465;22;20012;-85
2022/10/04 02:04:27;;;;;;;;;;;11.50;99.90;;;;;;6269300;22;20008;-85
2022/10/04 02:06:57;;;;;;;16.77;9.48;;;12.00;99.90;;;;;;6243708;22;19919;-85
2022/10/04 02:09:45;;;;;;;18.83;9.77;;;11.40;99.90;;;;;;6269244;22;20020;-85
2022/10/04 02:12:15;;;;;;;18.30;9.05;;;11.40;99.90;;;;;;6269599;22;20012;-85
2022/10/04 02:14:52;;;;;;;20.23;9.40;;;11.40;99.90;;;;;;6243755;22;20091;-85
2022/10/04 02:17:30;;;;;;;15.40;9.50;;;11.40;99.90;;;;;;6269449;22;20014;-85
2022/10/04 02:19:58;;;;;;;20.08;9.43;;;11.40;99.90;;;;;;6268617;22;20349;-85
2022/10/04 02:22:25;;;;;;;18.80;9.70;;;11.40;99.90;;;;;;6269241;22;20066;-85
2022/10/04 02:24:53;;;;;;;16.42;8.95;;;11.50;99.90;;;;;;6269156;22;20022;-85
2022/10/04 02:27:19;;;;;;;19.60;10.07;;;11.30;99.90;;;;;;6269872;22;20082;-84
2022/10/04 02:29:45;;;;;;;18.50;9.50;;;11.30;99.90;;;;;;6268747;22;20539;-85
2022/10/04 02:34:58;;;;;;;17.67;9.70;;;11.20;99.90;;;;;;6270351;22;20012;-85
2022/10/04 02:37:27;;;;;;;16.50;10.27;;;11.20;99.90;;;;;;6270277;22;20023;-85
2022/10/04 02:40:04;;;;;;;20.27;10.38;;;11.20;99.90;;;;;;6271472;22;20498;-85
2022/10/04 02:42:43;;;;;;;14.95;9.80;;;11.20;99.90;;;;;;6271390;22;20349;-85
2022/10/04 02:45:16;;;;;;;16.65;9.15;;;11.10;99.90;;;;;;6272854;22;20099;-85
2022/10/04 02:47:50;;;;;;;17.88;9.85;;;11.10;99.90;;;;;;6272657;22;20349;-85
2022/10/04 02:50:38;;;;;;;;;;;11.10;99.90;;;;;;6271534;22;20015;-85
2022/10/04 02:53:36;;;;;;;14.93;8.68;;;11.00;99.90;;;;;;6245650;22;20336;-85
2022/10/04 02:56:02;;;;;;;19.30;9.75;;;11.00;99.90;;;;;;6258104;22;20438;-85
2022/10/04 02:58:30;;;;;;;18.10;10.48;;;11.00;99.90;;;;;;6271337;22;20018;-85
2022/10/04 03:00:58;;;;;;;14.73;9.20;;;10.90;99.90;;;;;;6245738;22;20464;-85
2022/10/04 03:03:31;;;;;;;20.45;9.80;;;11.00;99.90;;;;;;6270365;22;20019;-85
2022/10/04 03:06:05;;;;;;;23.00;9.73;;;11.00;99.90;;;;;;6270793;22;20058;-85
2022/10/04 03:08:35;;;;;;;15.53;9.73;;;11.00;99.90;;;;;;6245562;22;20042;-85
2022/10/04 03:11:03;;;;;;;18.05;9.80;;;11.00;99.90;;;;;;6270513;22;20019;-85
2022/10/04 03:13:30;;;;;;;20.90;9.73;;;11.00;99.90;;;;;;6269896;22;20447;-85
2022/10/04 03:15:55;;;;;;;21.27;10.38;;;11.00;99.90;;;;;;6272892;22;20377;-85
2022/10/04 03:18:22;;;;;;;21.40;11.13;;;10.90;99.90;;;;;;6270046;22;20053;-85
2022/10/04 03:20:48;;;;;;;22.80;10.43;;;11.00;99.90;;;;;;6272910;22;20018;-85
2022/10/04 03:23:18;;;;;;;17.52;9.38;;;11.50;99.90;;;;;;6270460;22;20020;-85
2022/10/04 03:26:13;;;;;;;19.33;10.68;;;11.00;99.90;;;;;;6270592;22;20016;-85
2022/10/04 03:28:39;;;;;;;19.02;10.73;;;11.00;99.90;;;;;;6272712;22;20020;-85
2022/10/04 03:31:05;;;;;;;18.27;10.65;;;11.00;99.90;;;;;;6271888;22;20019;-85
2022/10/04 03:33:31;;;;;;;19.30;10.38;;;11.00;99.90;;;;;;6270969;22;20436;-85
2022/10/04 03:35:59;;;;;;;20.27;10.15;;;11.00;99.90;;;;;;6270902;22;20057;-85
2022/10/04 03:38:27;;;;;;;24.45;10.82;;;11.00;99.90;;;;;;6244995;22;20015;-85
2022/10/04 03:40:59;;;;;;;16.48;10.07;;;11.10;99.90;;;;;;6272473;22;20062;-85
2022/10/04 03:43:32;;;;;;;17.80;10.43;;;11.00;99.90;;;;;;6270590;22;20022;-85
2022/10/04 03:46:00;;;;;;;16.38;9.77;;;11.50;99.90;;;;;;6269741;22;20047;-85
2022/10/04 03:48:40;;;;;;;19.13;10.27;;;11.00;99.90;;;;;;6269622;22;20012;-85
2022/10/04 03:51:12;;;;;;;20.52;9.57;;;10.90;99.90;;;;;;6271970;22;20061;-85
2022/10/04 03:53:44;;;;;;;18.02;10.13;;;10.90;99.90;;;;;;6272408;22;20082;-86
2022/10/04 03:56:19;;;;;;;20.02;11.05;;;10.90;99.90;;;;;;6270422;22;20467;-85
2022/10/04 03:58:46;;;;;;;20.13;9.50;;;10.90;99.90;;;;;;6270398;22;20015;-85
2022/10/04 04:01:16;;;;;;;18.23;10.40;;;10.90;99.90;;;;;;6244577;22;20476;-85
2022/10/04 04:04:01;;;;;;;17.02;9.23;;;10.90;99.90;;;;;;6270114;22;20055;-85
2022/10/04 04:06:42;;;;;;;22.20;10.55;;;10.80;99.90;;;;;;6270463;22;20377;-85
2022/10/04 04:09:43;;;;;;;20.23;9.35;;;10.80;99.90;;;;;;6244799;22;20020;-86
2022/10/04 04:12:24;;;;;;;20.80;10.80;;;10.80;99.90;;;;;;6237339;22;20018;-85
2022/10/04 04:14:51;;;;;;;22.05;10.43;;;10.80;99.90;;;;;;6269803;22;20441;-85
2022/10/04 04:17:34;;;;;;;19.63;10.30;;;10.80;99.90;;;;;;6270320;22;20379;-85
2022/10/04 04:20:03;;;;;;;19.73;11.02;;;10.80;99.90;;;;;;6271556;22;20015;-85
2022/10/04 04:22:30;;;;;;;16.00;9.35;;;10.80;99.90;;;;;;6270381;22;20016;-85
2022/10/04 04:25:07;;;;;;;21.60;10.75;;;10.80;99.90;;;;;;6272178;22;20012;-85
2022/10/04 04:27:36;;;;;;;19.75;11.27;;;10.80;99.90;;;;;;6270575;22;20018;-85
2022/10/04 04:30:05;;;;;;;19.20;10.15;;;10.80;99.90;;;;;;6271556;22;20030;-85
2022/10/04 04:32:40;;;;;;;21.77;10.60;;;10.70;99.90;;;;;;6269687;22;20689;-85
2022/10/04 04:35:19;;;;;;;22.95;10.27;;;10.70;99.90;;;;;;6270960;22;20440;-85
2022/10/04 04:38:16;;;;;;;23.90;10.52;;;10.70;99.90;;;;;;6271642;22;20007;-85
2022/10/04 04:40:42;;;;;;;17.50;9.32;;;10.70;99.90;;;;;;6271465;22;20011;-85
2022/10/04 04:43:16;;;;;;;20.05;10.75;;;10.70;99.90;;;;;;6270161;22;20011;-85
2022/10/04 04:45:43;;;;;;;21.20;12.25;;;10.60;99.90;;;;;;6269893;22;20034;-85
2022/10/04 04:48:13;;;;;;;19.73;13.25;;;10.60;99.90;;;;;;6269710;22;20441;-86
2022/10/04 04:50:40;;;;;;;22.05;11.77;;;10.60;99.90;;;;;;6271314;22;20502;-85
2022/10/04 04:53:17;;;;;;;24.52;12.00;;;10.50;99.90;;;;;;6243882;22;20333;-85
2022/10/04 04:55:56;;;;;;;22.15;12.07;;;10.50;99.90;;;;;;6271511;22;20015;-85
2022/10/04 04:58:31;;;;;;;29.23;13.10;;;10.50;99.90;;;;;;6243571;22;20011;-85
2022/10/04 05:01:05;;;;;;;22.40;11.15;;;10.40;99.90;;;;;;6268996;22;20080;-85
2022/10/04 05:03:32;;;;;;;19.50;12.05;;;10.40;99.90;;;;;;6269064;22;20019;-85
2022/10/04 05:06:01;;;;;;;21.63;12.93;;;10.40;99.90;;;;;;6268735;22;20027;-86
2022/10/04 05:08:30;;;;;;;23.10;12.13;;;10.40;99.90;;;;;;6271212;22;20066;-85
2022/10/04 05:11:08;;;;;;;19.75;12.35;;;10.40;99.90;;;;;;6269812;22;20463;-85
2022/10/04 05:13:38;;;;;;;21.63;12.65;;;10.40;99.90;;;;;;6269598;22;20016;-85
2022/10/04 05:16:11;;;;;;;26.70;13.57;;;10.40;99.90;;;;;;6271133;22;20091;-85
2022/10/04 05:18:37;;;;;;;22.27;12.60;;;10.40;99.90;;;;;;6269739;22;20047;-85
2022/10/04 05:21:21;;;;;;;22.25;13.00;;;10.40;99.90;;;;;;6269470;22;20612;-85
2022/10/04 05:23:47;;;;;;;21.27;12.40;;;10.40;99.90;;;;;;6271992;22;20371;-84
2022/10/04 05:26:13;;;;;;;22.30;11.73;;;10.40;99.90;;;;;;6271493;22;20087;-85
2022/10/04 05:28:40;;;;;;;20.10;12.30;;;10.40;99.90;;;;;;6268995;22;20448;-85
2022/10/04 05:31:36;;;;;;;22.55;12.90;;;11.10;99.90;;;;;;6269452;22;20015;-85
2022/10/04 05:34:17;;;;;;;30.02;12.77;;;10.30;99.90;;;;;;6268876;22;20475;-85
2022/10/04 05:36:54;;;;;;;21.13;13.90;;;10.30;99.90;;;;;;6244060;22;20050;-85
2022/10/04 05:39:31;;;;;;;24.35;15.15;;;10.30;99.90;;;;;;6269476;22;20012;-85
2022/10/04 05:42:13;;;;;;;26.48;15.20;;;10.20;99.90;;;;;;6268872;22;20069;-85
2022/10/04 05:44:52;;;;;;;29.70;15.85;;;10.20;99.90;;;;;;6271065;22;20015;-85
2022/10/04 05:47:22;;;;;;;27.33;14.73;;;10.20;99.90;;;;;;6274443;22;20438;-86
2022/10/04 05:49:59;;;;;;;24.50;13.00;;;10.10;99.90;;;;;;6250038;22;20115;-87
2022/10/04 05:52:37;;;;;;;24.63;13.57;;;10.10;99.90;;;;;;6275166;22;20034;-86
2022/10/04 05:55:15;;;;;;;24.27;14.85;;;10.10;99.90;;;;;;6272399;22;20011;-87
2022/10/04 05:57:58;;;;;;;29.25;18.75;;;10.10;99.90;;;;;;6241716;22;20023;-88
2022/10/04 06:01:02;;;;;;;33.30;22.00;;;10.00;99.90;;;;;;6269606;22;20050;-86
2022/10/04 06:04:00;;;;;;;28.40;19.02;;;10.00;99.90;;;;;;6272141;22;20015;-86
2022/10/04 06:06:52;;;;;;;28.90;20.77;;;10.00;99.90;;;;;;6256266;22;20083;-86
2022/10/04 06:09:36;;;;;;;27.13;16.08;;;10.00;99.90;;;;;;6269897;22;20020;-87
2022/10/04 06:12:17;;;;;;;24.80;15.10;;;10.00;99.90;;;;;;6271689;22;20373;-87
2022/10/04 06:15:11;;;;;;;28.45;15.55;;;10.00;99.90;;;;;;6272296;22;20090;-88
2022/10/04 06:17:50;;;;;;;27.63;14.57;;;10.00;99.90;;;;;;6246064;22;20007;-86
2022/10/04 06:20:50;;;;;;;28.23;17.80;;;10.00;99.90;;;;;;6274216;22;20328;-86
2022/10/04 06:23:17;;;;;;;30.45;18.40;;;10.00;99.90;;;;;;6272057;22;20092;-86
2022/10/04 06:25:52;;;;;;;27.35;16.20;;;9.90;99.90;;;;;;6271982;22;20258;-86
2022/10/04 06:28:26;;;;;;;28.17;16.73;;;9.90;99.90;;;;;;6246558;22;20015;-86
2022/10/04 06:31:13;;;;;;;28.70;17.17;;;9.90;99.90;;;;;;6246825;22;20012;-85
2022/10/04 06:34:06;;;;;;;22.38;14.82;;;10.00;99.90;;;;;;6272655;22;20249;-86
2022/10/04 06:37:02;;;;;;;26.42;15.90;;;10.00;99.90;;;;;;6271368;22;20023;-86
2022/10/04 06:39:52;;;;;;;22.15;14.98;;;9.90;99.90;;;;;;6272062;22;20008;-85
2022/10/04 06:42:38;;;;;;;28.30;15.35;;;10.00;99.90;;;;;;6272749;22;20109;-85
2022/10/04 06:45:06;;;;;;;26.10;16.20;;;10.00;99.90;;;;;;6271548;22;20023;-85
2022/10/04 06:47:50;;;;;;;30.80;16.95;;;10.00;99.90;;;;;;6245544;22;20016;-85
2022/10/04 06:50:41;;;;;;;28.90;16.50;;;10.00;99.90;;;;;;6271717;22;20311;-86
2022/10/04 06:53:19;;;;;;;25.30;16.08;;;10.10;99.90;;;;;;6273824;22;20322;-85
2022/10/04 06:56:23;;;;;;;28.05;15.93;;;10.10;99.90;;;;;;6271562;22;20474;-86
2022/10/04 06:59:09;;;;;;;23.40;15.80;;;10.10;99.90;;;;;;6272228;22;20023;-85
2022/10/04 07:01:45;;;;;;;27.42;16.05;;;10.20;99.90;;;;;;6274192;22;20019;-85
2022/10/04 07:04:24;;;;;;;31.15;15.93;;;10.30;99.90;;;;;;6274061;22;20012;-86
2022/10/04 07:07:22;;;;;;;27.75;17.42;;;10.30;99.90;;;;;;6271731;22;20055;-85
2022/10/04 07:09:44;;;;;;;31.58;17.40;;;10.30;99.90;;;;;;6273039;22;20015;-86
2022/10/04 07:12:15;;;;;;;27.65;16.88;;;10.40;99.90;;;;;;6272323;22;20083;-86
2022/10/04 07:14:49;;;;;;;24.77;16.80;;;10.50;99.90;;;;;;6274140;22;20403;-86
2022/10/04 07:17:29;;;;;;;29.85;16.27;;;10.50;99.90;;;;;;6273516;22;20003;-86
2022/10/04 07:19:57;;;;;;;22.50;15.75;;;10.60;99.90;;;;;;6271571;22;20458;-86
2022/10/04 07:22:32;;;;;;;24.88;16.45;;;10.70;99.90;;;;;;6272377;22;20008;-86
2022/10/04 07:25:07;;;;;;;22.52;15.00;;;10.70;99.90;;;;;;6270936;22;20030;-86
2022/10/04 07:27:41;;;;;;;;;;;10.80;99.90;;;;;;6274418;22;20008;-85
2022/10/04 07:30:19;;;;;;;23.27;15.35;;;10.90;99.90;;;;;;6271350;22;20069;-86
2022/10/04 07:32:50;;;;;;;22.65;15.35;;;10.90;99.90;;;;;;6273831;22;20059;-85
2022/10/04 07:35:35;;;;;;;26.05;15.95;;;10.90;99.90;;;;;;6271910;22;20011;-86
2022/10/04 07:38:25;;;;;;;23.23;15.63;;;11.00;99.90;;;;;;6246151;22;20004;-86
2022/10/04 07:40:57;;;;;;;25.92;16.13;;;11.00;99.90;;;;;;6273808;22;20047;-86
2022/10/04 07:43:29;;;;;;;19.55;15.10;;;11.40;99.90;;;;;;6273750;22;20011;-86
2022/10/04 07:46:13;;;;;;;24.38;16.23;;;11.30;99.90;;;;;;6273780;22;20012;-86
2022/10/04 07:48:39;;;;;;;22.70;15.10;;;11.40;99.90;;;;;;6245901;22;20098;-86
2022/10/04 07:51:22;;;;;;;25.95;15.55;;;11.50;99.90;;;;;;6273600;22;20015;-86
2022/10/04 07:53:57;;;;;;;25.70;15.25;;;11.60;99.90;;;;;;6273537;22;20008;-86
2022/10/04 07:56:56;;;;;;;22.90;15.13;;;11.80;99.90;;;;;;6272137;22;20087;-86
2022/10/04 07:59:42;;;;;;;23.75;15.00;;;11.90;99.90;;;;;;6273543;22;20034;-86
2022/10/04 08:02:33;;;;;;;20.30;14.70;;;12.10;99.90;;;;;;6270303;22;20512;-86
2022/10/04 08:05:18;;;;;;;22.88;13.98;;;12.20;99.90;;;;;;6273504;22;20063;-86
2022/10/04 08:07:51;;;;;;;25.85;14.40;;;12.30;99.90;;;;;;6270522;22;20102;-86
2022/10/04 08:10:30;;;;;;;19.90;14.33;;;12.40;99.90;;;;;;6271232;22;20383;-86
2022/10/04 08:13:26;;;;;;;24.23;14.73;;;12.40;99.90;;;;;;6273198;22;20223;-86
2022/10/04 08:15:54;;;;;;;23.05;13.55;;;12.50;99.90;;;;;;6272829;22;20015;-86
2022/10/04 08:18:40;;;;;;;19.52;13.25;;;12.90;99.90;;;;;;6270985;22;20008;-86
2022/10/04 08:21:08;;;;;;;21.63;13.23;;;12.40;99.90;;;;;;6270350;22;20016;-86
2022/10/04 08:23:43;;;;;;;28.42;12.85;;;12.40;99.90;;;;;;6273274;22;20026;-85
2022/10/04 08:26:18;;;;;;;23.83;12.73;;;12.40;99.90;;;;;;6271577;22;20074;-86
2022/10/04 08:32:12;;;;;;;20.48;11.38;;;12.30;99.90;;;;;;6273627;22;19915;-86
2022/10/04 08:35:03;;;;;;;19.50;11.43;;;12.20;99.90;;;;;;6272864;22;20008;-86
2022/10/04 08:37:53;;;;;;;23.77;12.63;;;12.20;99.90;;;;;;6245031;22;20023;-86
2022/10/04 08:40:56;;;;;;;19.95;11.90;;;12.20;99.90;;;;;;6271335;22;20015;-86
2022/10/04 08:43:59;;;;;;;20.10;11.23;;;12.30;99.90;;;;;;6271459;22;20012;-86
2022/10/04 08:46:51;;;;;;;15.43;10.45;;;12.30;99.90;;;;;;6270746;22;20321;-86
2022/10/04 08:49:50;;;;;;;22.42;11.23;;;12.40;99.90;;;;;;6270970;22;20309;-86
2022/10/04 08:52:21;;;;;;;20.20;11.05;;;12.50;99.90;;;;;;6271029;22;20094;-86
2022/10/04 08:55:04;;;;;;;15.82;10.85;;;12.60;99.90;;;;;;6272866;22;20012;-86
2022/10/04 08:57:54;;;;;;;18.33;11.00;;;12.60;99.90;;;;;;6273278;22;20008;-86
2022/10/04 09:00:39;;;;;;;17.48;9.82;;;12.70;99.90;;;;;;6273097;22;20016;-85
2022/10/04 09:03:41;;;;;;;21.02;9.80;;;12.80;99.90;;;;;;6271246;22;20022;-86
2022/10/04 09:06:21;;;;;;;16.75;8.73;;;13.00;99.90;;;;;;6271798;22;20066;-86
2022/10/04 09:09:12;;;;;;;17.05;9.32;;;13.10;99.90;;;;;;6271999;22;20344;-86
2022/10/04 09:11:53;;;;;;;20.33;8.70;;;13.20;99.90;;;;;;6244922;22;20019;-86
2022/10/04 09:14:41;;;;;;;19.35;8.75;;;13.40;99.90;;;;;;6270782;22;20011;-87
2022/10/04 09:17:20;;;;;;;14.20;8.35;;;13.60;99.90;;;;;;6270526;22;20019;-86
2022/10/04 09:19:55;;;;;;;11.48;7.00;;;13.70;99.90;;;;;;6270345;22;20024;-86
2022/10/04 09:22:56;;;;;;;12.73;7.50;;;13.90;99.90;;;;;;6272493;22;20035;-86
2022/10/04 09:25:52;;;;;;;11.82;7.10;;;14.00;99.90;;;;;;6272628;22;20379;-86
2022/10/04 09:28:55;;;;;;;10.88;6.65;;;14.20;99.90;;;;;;6270277;22;20039;-86
2022/10/04 09:31:47;;;;;;;11.32;6.55;;;14.40;99.90;;;;;;6272413;22;20095;-86
2022/10/04 09:34:43;;;;;;;16.52;6.65;;;14.50;99.90;;;;;;6270003;22;20011;-86
2022/10/04 09:37:24;;;;;;;11.38;6.30;;;14.70;99.90;;;;;;6272375;22;20022;-86
2022/10/04 09:39:59;;;;;;;13.07;6.72;;;14.80;99.90;;;;;;6270586;22;20015;-86
2022/10/04 09:42:48;;;;;;;12.88;6.68;;;14.90;99.90;;;;;;6272403;22;20058;-86
2022/10/04 09:45:41;;;;;;;11.38;6.32;;;15.00;99.90;;;;;;6272571;22;20011;-86
2022/10/04 09:48:24;;;;;;;11.70;6.75;;;15.20;99.90;;;;;;6270159;22;20023;-87
2022/10/04 09:51:07;;;;;;;13.80;6.55;;;15.30;99.90;;;;;;6272430;22;20007;-86
2022/10/04 09:53:51;;;;;;;16.58;7.40;;;15.40;99.90;;;;;;6270180;22;20019;-86
2022/10/04 09:56:43;;;;;;;12.30;6.93;;;15.50;99.90;;;;;;6272640;22;20011;-86
2022/10/04 09:59:49;;;;;;;13.73;7.10;;;15.70;99.90;;;;;;6272410;22;20332;-86
2022/10/04 10:02:37;;;;;;;;;;;15.70;99.90;;;;;;6272280;22;20004;-86
2022/10/04 10:05:30;;;;;;;14.05;6.82;;;15.90;99.90;;;;;;6270488;22;20287;-86
2022/10/04 10:08:30;;;;;;;12.18;6.45;;;16.00;99.90;;;;;;6271833;22;20023;-87
2022/10/04 10:14:41;;;;;;;13.57;6.03;;;16.10;99.90;;;;;;6272269;22;20302;-86
2022/10/04 10:17:47;;;;;;;9.75;5.45;;;16.20;99.90;;;;;;6269254;22;20314;-87
2022/10/04 10:20:31;;;;;;;13.45;6.63;;;16.30;99.90;;;;;;6250754;22;20011;-86
2022/10/04 10:23:22;;;;;;;11.45;5.80;;;16.50;99.90;;;;;;6271908;22;20008;-86
2022/10/04 10:26:22;;;;;;;10.27;5.45;;;16.60;99.90;;;;;;6272384;22;20039;-84
2022/10/04 10:29:26;;;;;;;10.40;5.38;;;16.70;99.90;;;;;;6272326;22;20016;-84
2022/10/04 10:31:55;;;;;;;12.65;4.47;;;16.80;99.90;;;;;;6269583;22;20134;-84
2022/10/04 10:34:45;;;;;;;11.60;4.85;;;16.90;99.90;;;;;;6272433;22;20328;-84
2022/10/04 10:37:29;;;;;;;8.02;4.78;;;17.00;99.90;;;;;;6270390;22;20432;-85
2022/10/04 10:40:07;;;;;;;8.95;4.32;;;17.10;99.90;;;;;;6270360;22;20061;-85
2022/10/04 10:42:57;;;;;;;8.55;3.97;;;17.10;99.90;;;;;;6270885;22;20408;-84
2022/10/04 10:45:48;;;;;;;10.20;4.30;;;17.10;99.90;;;;;;6272459;22;20011;-84
2022/10/04 10:48:23;;;;;;;17.25;4.57;;;17.20;99.90;;;;;;6270404;22;20015;-84
2022/10/04 10:51:33;;;;;;;11.10;4.30;;;17.20;99.90;;;;;;6271918;22;20483;-85
2022/10/04 10:54:44;;;;;;;10.90;4.20;;;17.30;99.90;;;;;;6098928;23;20024;-85
2022/10/04 10:57:47;;;;;;;9.63;4.30;;;17.40;99.90;;;;;;6119192;23;20396;-84
2022/10/04 11:00:37;;;;;;;14.77;4.57;;;17.50;99.90;;;;;;6033372;23;20026;-84
2022/10/04 11:03:29;;;;;;;10.13;4.90;;;17.70;99.90;;;;;;6033801;23;20361;-84
2022/10/04 11:06:11;;;;;;;9.00;3.78;;;17.80;99.90;;;;;;6010143;23;20066;-85
2022/10/04 11:09:05;;;;;;;9.82;4.00;;;17.90;99.90;;;;;;6033772;23;20029;-85
2022/10/04 11:11:55;;;;;;;10.38;4.10;;;17.90;99.90;;;;;;6033852;23;20015;-84
2022/10/04 11:14:40;;;;;;;12.57;4.18;;;18.00;99.90;;;;;;6010133;23;20057;-85
2022/10/04 11:17:37;;;;;;;9.20;3.40;;;18.10;99.90;;;;;;6009584;23;20015;-81
2022/10/04 11:20:37;;;;;;;9.82;4.05;;;18.20;99.90;;;;;;6033412;23;20020;-84
2022/10/04 11:23:20;;;;;;;8.25;3.90;;;18.20;99.90;;;;;;6033098;23;20422;-84
2022/10/04 11:26:19;;;;;;;8.82;4.53;;;18.30;99.90;;;;;;6033365;23;20484;-84
2022/10/04 11:28:59;;;;;;;8.70;4.47;;;18.30;99.90;;;;;;6160989;23;20045;-85
2022/10/04 11:32:01;;;;;;;10.05;4.18;;;18.40;99.90;;;;;;6153960;23;20028;-84
2022/10/04 11:34:49;;;;;;;9.88;4.00;;;18.40;99.90;;;;;;6179400;23;20013;-84
2022/10/04 11:37:32;;;;;;;9.43;4.88;;;18.50;99.90;;;;;;6235042;22;20163;-84
2022/10/04 11:40:09;;;;;;;10.02;4.55;;;18.60;99.90;;;;;;6273179;22;20019;-85
2022/10/04 11:43:03;;;;;;;10.63;4.38;;;18.80;99.90;;;;;;6273158;22;20393;-84
2022/10/04 11:46:12;;;;;;;11.93;3.55;;;18.80;99.90;;;;;;6270703;22;20020;-83
2022/10/04 11:48:59;;;;;;;8.18;3.30;;;18.80;99.90;;;;;;6270265;22;20024;-84
2022/10/04 11:51:48;;;;;;;8.13;3.63;;;18.90;99.90;;;;;;6271055;22;20430;-84
2022/10/04 11:54:37;;;;;;;9.82;3.88;;;18.90;99.90;;;;;;6271246;22;20019;-84
2022/10/04 11:57:43;;;;;;;6.43;3.80;;;19.00;99.90;;;;;;6273369;22;20019;-84
2022/10/04 12:00:21;;;;;;;9.73;3.60;;;19.00;99.90;;;;;;6271445;22;20046;-84
2022/10/04 12:03:18;;;;;;;11.27;4.10;;;18.90;99.90;;;;;;6245592;22;20023;-84
2022/10/04 12:06:06;;;;;;;9.85;3.83;;;19.00;99.90;;;;;;6273613;22;20015;-84
2022/10/04 12:08:48;;;;;;;7.47;4.63;;;19.00;99.90;;;;;;6271117;22;20547;-84
2022/10/04 12:14:30;;;;;;;10.27;4.88;;;18.90;99.90;;;;;;6272272;22;20098;-84
2022/10/04 12:17:27;;;;;;;9.55;4.55;;;18.90;99.90;;;;;;6272563;22;20019;-83
2022/10/04 12:20:20;;;;;;;9.20;4.70;;;19.00;99.90;;;;;;6261257;22;20468;-84
2022/10/04 12:23:12;;;;;;;9.63;4.10;;;19.10;99.90;;;;;;6272274;22;20062;-84
2022/10/04 12:25:52;;;;;;;10.30;3.92;;;19.10;99.90;;;;;;6272801;22;20012;-83
2022/10/04 12:28:46;;;;;;;10.23;4.70;;;19.20;99.90;;;;;;6272166;22;20008;-84
2022/10/04 12:31:32;;;;;;;12.07;4.73;;;19.30;99.90;;;;;;6271027;22;20173;-85
2022/10/04 12:34:16;;;;;;;8.88;4.80;;;19.30;99.90;;;;;;6271246;22;20345;-84
2022/10/04 12:37:15;;;;;;;9.90;4.00;;;19.30;99.90;;;;;;6269885;22;20020;-84
2022/10/04 12:39:59;;;;;;;12.30;5.38;;;19.40;99.90;;;;;;6269957;22;20507;-85
2022/10/04 12:42:45;;;;;;;9.13;4.70;;;19.40;99.90;;;;;;6269452;22;20022;-84
2022/10/04 12:45:47;;;;;;;9.18;4.10;;;19.30;99.90;;;;;;6269706;22;20391;-85
2022/10/04 12:48:15;;;;;;;9.40;4.03;;;19.20;99.90;;;;;;6270268;22;20038;-84
2022/10/04 12:51:00;;;;;;;9.93;4.18;;;19.30;99.90;;;;;;6269631;22;20047;-84
2022/10/04 12:53:34;;;;;;;9.32;3.75;;;19.30;99.90;;;;;;6269752;22;20026;-84
2022/10/04 12:56:05;;;;;;;;;;;19.40;99.90;;;;;;6269712;22;20015;-84
2022/10/04 12:58:39;;;;;;;8.57;4.53;;;19.50;99.90;;;;;;6269028;22;19917;-84
2022/10/04 13:01:42;;;;;;;10.90;5.43;;;19.50;99.90;;;;;;6269297;22;20023;-84
2022/10/04 13:04:11;;;;;;;9.77;4.30;;;19.40;99.90;;;;;;6269623;22;20015;-86
2022/10/04 13:06:58;;;;;;;10.15;4.55;;;19.50;99.90;;;;;;6243365;22;20073;-85
2022/10/04 13:09:49;;;;;;;11.38;4.85;;;19.50;99.90;;;;;;6269568;22;20072;-85
2022/10/04 13:12:34;;;;;;;12.93;4.85;;;19.60;99.90;;;;;;6271169;22;20012;-85
2022/10/04 13:15:23;;;;;;;6.93;4.07;;;19.60;99.90;;;;;;6269878;22;20054;-85
2022/10/04 13:18:08;;;;;;;10.50;4.90;;;19.60;99.90;;;;;;6243789;22;20433;-85
2022/10/04 13:20:48;;;;;;;15.45;4.65;;;19.60;99.90;;;;;;6270656;22;20015;-85
2022/10/04 13:23:24;;;;;;;9.98;5.05;;;19.50;99.90;;;;;;6268673;22;20542;-85
2022/10/04 13:26:36;;;;;;;9.70;5.03;;;19.40;99.90;;;;;;6268664;22;20537;-85
2022/10/04 13:29:06;;;;;;;9.68;5.35;;;19.30;99.90;;;;;;6271363;22;20016;-85
2022/10/04 13:31:42;;;;;;;12.27;5.43;;;19.40;99.90;;;;;;6270895;22;20027;-86
2022/10/04 13:34:39;;;;;;;10.20;5.20;;;19.30;99.90;;;;;;6271459;22;20015;-86
2022/10/04 13:37:31;;;;;;;11.68;5.60;;;19.30;99.90;;;;;;6269659;22;20012;-86
2022/10/04 13:40:05;;;;;;;12.38;4.90;;;19.40;99.90;;;;;;6270660;22;20057;-86
2022/10/04 13:42:55;;;;;;;11.43;5.80;;;19.40;99.90;;;;;;6271408;22;20533;-86
2022/10/04 13:45:23;;;;;;;11.30;5.45;;;19.40;99.90;;;;;;6270897;22;20019;-86
2022/10/04 13:48:07;;;;;;;10.23;4.38;;;19.50;99.90;;;;;;6270988;22;20016;-85
2022/10/04 13:50:51;;;;;;;10.98;5.38;;;19.50;99.90;;;;;;6271136;22;20138;-85
2022/10/04 13:56:44;;;;;;;9.60;4.40;;;19.30;99.90;;;;;;6269954;22;20468;-85
2022/10/04 13:59:41;;;;;;;12.15;5.63;;;19.10;99.90;;;;;;6271452;22;20011;-86